Time;durP1;ratioP1;P1;durP2;ratioP2;P2;SDS_P1;SDS_P2;PMS_P1;PMS_P2;Temp;Humidity;BMP_temperature;BMP_pressure;BME280_temperature;BME280_humidity;BME280_pressure;Samples;Min_cycle;Max_cycle;Signal;HPM_P1;HPM_P2
2023/09/29 00:01:06;;;;;;;26.85;24.17;;;;;;;16.53;89.75;100493.44;10240815;28;20047;-79
2023/09/29 00:06:11;;;;;;;28.45;24.02;;;;;;;16.46;89.88;100489.72;10258541;28;20046;-80
2023/09/29 00:11:14;;;;;;;28.17;24.23;;;;;;;16.50;89.80;100495.66;10242673;28;20050;-79
2023/09/29 00:16:17;;;;;;;28.38;24.15;;;;;;;16.49;89.69;100505.66;10282844;28;20051;-79
2023/09/29 00:21:21;;;;;;;31.85;24.20;;;;;;;16.44;90.25;100497.13;10279551;28;21198;-79
2023/09/29 00:26:24;;;;;;;28.08;24.23;;;;;;;16.44;90.04;100490.88;10283759;28;20082;-81
2023/09/29 00:31:27;;;;;;;29.70;24.77;;;;;;;16.45;90.06;100487.97;10275455;28;20105;-78
2023/09/29 00:36:32;;;;;;;31.83;24.88;;;;;;;16.42;90.15;100482.03;10263093;28;20111;-79
2023/09/29 00:41:35;;;;;;;25.65;22.77;;;;;;;16.48;90.27;100492.25;10264737;28;20054;-78
2023/09/29 00:46:39;;;;;;;30.95;24.05;;;;;;;16.54;89.70;100483.47;10268727;28;20047;-78
2023/09/29 00:51:43;;;;;;;27.35;22.90;;;;;;;16.58;89.32;100482.97;10246280;28;20054;-79
2023/09/29 00:56:46;;;;;;;31.02;20.92;;;;;;;16.64;89.22;100480.63;10260550;28;20051;-79
2023/09/29 01:01:49;;;;;;;24.65;19.58;;;;;;;16.65;88.84;100488.63;10261197;28;20054;-78
2023/09/29 01:06:54;;;;;;;21.08;17.38;;;;;;;16.68;89.41;100473.91;10263506;28;20054;-79
2023/09/29 01:11:57;;;;;;;23.38;16.15;;;;;;;16.84;88.91;100473.09;10255139;28;20058;-78
2023/09/29 01:16:59;;;;;;;23.13;14.15;;;;;;;16.96;88.32;100480.78;10254460;28;20071;-78
2023/09/29 01:22:04;;;;;;;18.85;14.20;;;;;;;17.04;87.36;100475.38;10270827;28;20051;-80
2023/09/29 01:27:09;;;;;;;16.48;14.20;;;;;;;17.02;86.85;100471.13;10242530;28;20054;-80
2023/09/29 01:32:14;;;;;;;16.67;12.98;;;;;;;17.01;86.76;100474.88;10259167;28;21331;-78
2023/09/29 01:37:18;;;;;;;15.43;12.90;;;;;;;17.07;86.87;100473.38;10244276;28;20446;-78
2023/09/29 01:42:24;;;;;;;14.50;12.50;;;;;;;17.16;86.50;100469.69;10256978;28;20055;-78
2023/09/29 01:47:27;;;;;;;16.17;11.60;;;;;;;17.22;86.12;100480.75;10250672;28;20114;-79
2023/09/29 01:52:30;;;;;;;13.68;11.20;;;;;;;17.27;85.92;100465.81;10258597;28;20049;-77
2023/09/29 01:57:35;;;;;;;11.93;10.65;;;;;;;17.33;85.85;100462.44;10259279;28;20051;-80
2023/09/29 02:02:37;;;;;;;18.48;11.35;;;;;;;17.37;85.28;100447.53;10266467;28;20054;-80
2023/09/29 02:07:41;;;;;;;13.05;10.13;;;;;;;17.39;85.02;100445.50;10267419;28;20043;-79
2023/09/29 02:12:46;;;;;;;16.30;10.23;;;;;;;17.38;84.94;100458.19;10266273;28;20063;-80
2023/09/29 02:17:50;;;;;;;12.23;10.43;;;;;;;17.41;84.69;100454.28;10259846;28;20043;-80
2023/09/29 02:22:55;;;;;;;13.65;9.95;;;;;;;17.41;84.31;100455.13;10244851;28;20047;-79
2023/09/29 02:28:01;;;;;;;12.02;8.50;;;;;;;17.36;84.22;100465.69;10266939;28;20114;-80
2023/09/29 02:33:04;;;;;;;11.43;8.75;;;;;;;17.34;84.37;100461.44;10255367;28;20051;-80
2023/09/29 02:38:08;;;;;;;10.60;9.20;;;;;;;17.32;84.30;100460.75;10262075;28;20453;-79
2023/09/29 02:43:13;;;;;;;12.18;8.77;;;;;;;17.37;83.87;100447.53;10253086;28;20054;-80
2023/09/29 02:48:16;;;;;;;13.02;8.93;;;;;;;17.35;83.84;100450.38;10262566;28;20453;-78
2023/09/29 02:53:19;;;;;;;10.38;7.72;;;;;;;17.33;83.69;100432.56;10263305;28;20062;-79
2023/09/29 02:58:23;;;;;;;8.90;7.43;;;;;;;17.32;83.62;100431.72;10259848;28;20051;-78
2023/09/29 03:03:27;;;;;;;10.95;7.15;;;;;;;17.37;83.22;100437.50;10286404;28;20062;-79
2023/09/29 03:08:33;;;;;;;11.82;7.18;;;;;;;17.43;83.08;100436.81;10284190;28;20097;-78
2023/09/29 03:13:39;;;;;;;11.43;8.02;;;;;;;17.31;83.51;100446.31;10252921;28;20477;-80
2023/09/29 03:18:43;;;;;;;9.32;6.38;;;;;;;17.48;82.68;100448.03;10259760;28;20057;-79
2023/09/29 03:23:46;;;;;;;9.88;7.50;;;;;;;17.46;82.61;100443.78;10264024;28;20057;-79
2023/09/29 03:28:51;;;;;;;9.80;7.13;;;;;;;17.47;82.62;100446.34;10260254;28;20057;-79
2023/09/29 03:33:53;;;;;;;9.07;6.78;;;;;;;17.46;82.56;100441.91;10258713;28;20058;-79
2023/09/29 03:38:59;;;;;;;10.93;7.13;;;;;;;17.51;82.42;100437.84;10258933;28;20559;-79
2023/09/29 03:44:03;;;;;;;9.98;7.00;;;;;;;17.57;82.19;100434.47;10256208;28;20055;-78
2023/09/29 03:49:06;;;;;;;8.95;7.18;;;;;;;17.57;82.10;100429.03;10249738;28;20077;-79
2023/09/29 03:54:10;;;;;;;9.65;6.75;;;;;;;17.60;81.93;100434.97;10262114;28;20461;-80
2023/09/29 03:59:15;;;;;;;9.23;5.78;;;;;;;17.62;81.81;100430.22;10262752;28;20213;-80
2023/09/29 04:04:17;;;;;;;8.93;5.72;;;;;;;17.65;81.79;100420.88;10288824;28;20072;-80
2023/09/29 04:09:20;;;;;;;6.90;5.75;;;;;;;17.69;81.55;100423.09;10275210;28;20050;-78
2023/09/29 04:14:25;;;;;;;6.88;5.13;;;;;;;17.73;81.31;100414.63;10254592;28;21191;-79
2023/09/29 04:19:38;;;;;;;;;;;;;;;17.77;81.33;100410.53;10256496;28;20524;-78
2023/09/29 04:24:42;;;;;;;7.30;5.05;;;;;;;17.78;81.29;100406.81;10255551;28;19973;-78
2023/09/29 04:29:46;;;;;;;7.38;5.05;;;;;;;17.77;81.05;100414.13;10251088;28;20487;-79
2023/09/29 04:34:49;;;;;;;8.65;4.80;;;;;;;17.77;81.18;100392.38;10258527;28;20051;-78
2023/09/29 04:39:52;;;;;;;6.82;4.75;;;;;;;17.72;81.65;100392.03;10254939;28;20125;-78
2023/09/29 04:44:56;;;;;;;9.98;5.15;;;;;;;17.69;81.70;100389.66;10245498;28;20429;-77
2023/09/29 04:49:59;;;;;;;10.52;5.28;;;;;;;17.65;82.13;100383.69;10251002;28;20051;-77
2023/09/29 04:55:02;;;;;;;5.93;4.75;;;;;;;17.63;82.28;100382.19;10260567;28;20051;-78
2023/09/29 05:00:08;;;;;;;6.15;4.40;;;;;;;17.65;82.30;100382.84;10258836;28;20046;-78
2023/09/29 05:05:11;;;;;;;5.20;4.70;;;;;;;17.65;82.42;100382.84;10256650;28;20518;-79
2023/09/29 05:10:14;;;;;;;7.68;4.80;;;;;;;17.66;82.30;100387.25;10255408;28;20085;-79
2023/09/29 05:15:19;;;;;;;6.38;4.85;;;;;;;17.67;82.34;100380.84;10251525;28;20059;-78
2023/09/29 05:20:22;;;;;;;12.48;4.78;;;;;;;17.67;82.30;100384.38;10256954;28;20057;-77
2023/09/29 05:25:25;;;;;;;6.57;4.60;;;;;;;17.68;82.27;100377.09;10253229;28;20477;-79
2023/09/29 05:30:29;;;;;;;7.07;4.90;;;;;;;17.66;82.40;100380.00;10255562;28;20050;-79
2023/09/29 05:35:32;;;;;;;7.47;4.18;;;;;;;17.65;82.61;100396.44;10254456;28;20055;-79
2023/09/29 05:40:36;;;;;;;11.13;4.97;;;;;;;17.59;82.92;100383.56;10279523;28;20058;-80
2023/09/29 05:45:41;;;;;;;10.38;5.03;;;;;;;17.65;83.20;100386.41;10257281;28;20055;-79
2023/09/29 05:50:44;;;;;;;7.00;4.40;;;;;;;17.73;82.95;100390.16;10258726;28;20409;-78
2023/09/29 05:55:52;;;;;;;8.10;4.50;;;;;;;17.77;82.84;100389.66;10253376;28;20082;-79
2023/09/29 06:00:56;;;;;;;5.68;4.40;;;;;;;17.88;82.34;100396.56;10248983;28;20061;-79
2023/09/29 06:05:59;;;;;;;7.72;5.25;;;;;;;17.93;82.02;100397.75;10252211;28;20058;-79
2023/09/29 06:11:02;;;;;;;5.07;4.53;;;;;;;17.96;81.61;100380.25;10251899;28;20050;-78
2023/09/29 06:16:07;;;;;;;6.10;4.32;;;;;;;18.01;81.54;100380.63;10255954;28;20054;-79
2023/09/29 06:21:10;;;;;;;8.70;4.65;;;;;;;17.89;81.63;100373.84;10248371;28;20051;-80
2023/09/29 06:26:13;;;;;;;7.25;5.00;;;;;;;17.98;81.59;100378.25;10260933;28;20055;-80
2023/09/29 06:31:18;;;;;;;9.05;4.32;;;;;;;17.91;81.76;100385.41;10255553;28;20584;-80
2023/09/29 06:36:21;;;;;;;8.77;5.07;;;;;;;17.86;82.36;100376.91;10253477;28;20046;-79
2023/09/29 06:41:24;;;;;;;7.45;4.40;;;;;;;17.83;83.02;100369.09;10255058;28;20162;-78
2023/09/29 06:46:28;;;;;;;16.10;5.50;;;;;;;17.93;83.14;100381.44;10262841;28;20043;-77
2023/09/29 06:51:31;;;;;;;6.30;4.65;;;;;;;18.09;82.85;100379.78;10258896;28;20089;-78
2023/09/29 06:56:34;;;;;;;7.60;4.40;;;;;;;18.09;82.36;100379.78;10267831;28;20046;-78
2023/09/29 07:01:38;;;;;;;7.45;4.55;;;;;;;18.17;82.61;100392.50;10267495;28;20441;-78
2023/09/29 07:06:42;;;;;;;8.50;4.85;;;;;;;18.23;82.33;100387.19;10261506;28;20059;-80
2023/09/29 07:11:44;;;;;;;9.95;4.70;;;;;;;18.42;81.78;100396.00;10264164;28;20054;-79
2023/09/29 07:16:49;;;;;;;6.30;4.20;;;;;;;18.58;81.06;100387.75;10284956;28;20111;-79
2023/09/29 07:21:52;;;;;;;8.30;4.63;;;;;;;18.68;80.57;100382.13;10284094;28;21969;-81
2023/09/29 07:26:55;;;;;;;8.27;4.47;;;;;;;18.70;80.34;100370.00;10270910;28;20518;-80
2023/09/29 07:32:00;;;;;;;7.22;4.13;;;;;;;18.69;79.94;100372.94;10269628;28;20054;-81
2023/09/29 07:37:03;;;;;;;8.95;4.40;;;;;;;18.75;79.12;100374.94;10266376;28;20051;-81
2023/09/29 07:42:06;;;;;;;5.32;4.47;;;;;;;18.85;78.36;100367.44;10268795;28;20049;-78
2023/09/29 07:47:10;;;;;;;7.35;4.65;;;;;;;18.83;78.38;100366.75;10264569;28;20059;-81
2023/09/29 07:52:13;;;;;;;6.43;4.50;;;;;;;18.97;78.52;100362.41;10258640;28;20492;-82
2023/09/29 07:57:16;;;;;;;9.35;4.68;;;;;;;19.02;77.69;100363.56;10259773;28;20066;-79
2023/09/29 08:02:20;;;;;;;9.32;4.45;;;;;;;19.14;77.40;100361.31;10261562;28;20051;-80
2023/09/29 08:07:24;;;;;;;6.13;4.38;;;;;;;19.24;76.93;100363.75;10245760;28;20573;-81
2023/09/29 08:12:27;;;;;;;10.05;5.20;;;;;;;19.38;77.01;100356.69;10288221;28;20119;-78
2023/09/29 08:17:31;;;;;;;7.10;5.35;;;;;;;19.72;75.87;100345.34;10289830;28;20075;-79
2023/09/29 08:22:34;;;;;;;10.07;5.45;;;;;;;19.55;76.56;100349.22;10272702;28;20691;-81
2023/09/29 08:27:45;;;;;;;8.90;5.40;;;;;;;19.53;76.93;100352.13;10265200;28;20058;-79
2023/09/29 08:32:49;;;;;;;8.07;6.43;;;;;;;19.82;76.02;100348.63;10263887;28;20054;-82
2023/09/29 08:38:09;;;;;;;9.07;6.80;;;;;;;19.81;76.03;100346.13;10259388;28;20086;-79
2023/09/29 08:43:15;;;;;;;8.27;6.85;;;;;;;19.64;76.13;100348.16;10264755;28;20042;-81
2023/09/29 08:48:20;;;;;;;13.00;7.10;;;;;;;19.83;76.56;100344.06;10250826;28;20054;-80
2023/09/29 08:53:26;;;;;;;12.20;7.95;;;;;;;19.95;76.04;100336.25;10274281;28;20061;-80
2023/09/29 08:58:31;;;;;;;9.63;7.60;;;;;;;19.93;76.68;100322.81;10255277;28;20062;-79
2023/09/29 09:03:35;;;;;;;10.38;7.82;;;;;;;20.00;76.68;100318.31;10258235;28;20141;-78
2023/09/29 09:08:39;;;;;;;11.07;7.78;;;;;;;20.15;76.05;100320.19;10258142;28;20058;-80
2023/09/29 09:13:42;;;;;;;8.20;6.75;;;;;;;20.71;74.47;100332.25;10254320;28;20050;-79
2023/09/29 09:18:46;;;;;;;7.82;6.03;;;;;;;21.34;72.21;100318.03;10253667;28;20043;-80
2023/09/29 09:23:49;;;;;;;8.15;6.32;;;;;;;21.48;70.85;100311.63;10257720;28;20523;-78
2023/09/29 09:28:52;;;;;;;7.68;5.72;;;;;;;21.51;71.74;100322.16;10258429;28;20046;-80
2023/09/29 09:33:57;;;;;;;8.70;5.63;;;;;;;22.00;70.12;100320.44;10273681;28;20050;-79
2023/09/29 09:39:03;;;;;;;9.60;6.28;;;;;;;22.39;69.13;100324.44;10254935;28;20042;-78
2023/09/29 09:44:06;;;;;;;5.97;5.38;;;;;;;22.93;68.32;100324.44;10258597;28;20053;-78
2023/09/29 09:55:02;;;;;;;9.18;3.28;;;;;;;23.64;62.37;100312.94;10175956;29;20059;-78
2023/09/29 10:00:08;;;;;;;3.80;2.53;;;;;;;23.06;62.67;100323.59;10181334;29;20048;-77
2023/09/29 10:05:16;;;;;;;6.80;2.83;;;;;;;22.57;63.09;100324.72;10194723;29;20084;-79
2023/09/29 10:10:31;;;;;;;4.80;2.78;;;;;;;22.06;64.52;100327.84;10191961;29;20052;-78
2023/09/29 10:15:35;;;;;;;5.35;3.30;;;;;;;22.74;63.71;100317.84;10193813;29;20123;-79
2023/09/29 10:20:38;;;;;;;5.18;2.70;;;;;;;22.80;63.21;100307.13;10193135;29;20083;-79
2023/09/29 10:25:44;;;;;;;5.57;3.22;;;;;;;23.86;61.01;100305.34;10201385;29;20434;-78
2023/09/29 10:30:48;;;;;;;3.17;2.88;;;;;;;24.19;58.83;100304.41;10191286;29;20414;-79
2023/09/29 10:35:51;;;;;;;5.13;2.65;;;;;;;23.91;59.84;100292.88;10182823;29;20078;-79
2023/09/29 10:40:58;;;;;;;3.53;2.53;;;;;;;23.71;60.50;100298.38;10181836;29;20044;-79
2023/09/29 10:46:07;;;;;;;4.18;2.33;;;;;;;24.16;57.54;100290.25;10181744;29;20058;-79
2023/09/29 10:51:10;;;;;;;3.45;2.50;;;;;;;23.79;60.27;100292.69;10181123;29;20040;-79
2023/09/29 10:56:18;;;;;;;3.78;2.45;;;;;;;23.37;62.66;100286.59;10181525;29;20044;-78
2023/09/29 11:01:27;;;;;;;5.45;2.88;;;;;;;23.06;63.73;100301.69;10184317;29;20040;-79
2023/09/29 11:06:30;;;;;;;9.07;3.22;;;;;;;23.20;63.52;100286.13;10182157;29;20088;-78
2023/09/29 11:11:39;;;;;;;5.50;2.63;;;;;;;23.10;63.56;100297.50;10180792;29;20432;-78
2023/09/29 11:16:42;;;;;;;6.30;2.85;;;;;;;23.56;62.61;100287.59;10181640;29;20583;-79
2023/09/29 11:21:45;;;;;;;5.55;3.08;;;;;;;23.79;61.95;100287.19;10181969;29;20044;-79
2023/09/29 11:26:51;;;;;;;4.93;2.63;;;;;;;23.72;62.96;100286.31;10184443;29;20159;-79
2023/09/29 11:31:55;;;;;;;6.88;2.88;;;;;;;23.59;62.55;100288.03;10184135;29;20072;-79
2023/09/29 11:36:58;;;;;;;6.55;2.53;;;;;;;23.12;64.00;100292.69;10175043;29;20056;-78
2023/09/29 11:42:02;;;;;;;4.97;2.80;;;;;;;23.29;62.78;100289.53;10180664;29;20167;-78
2023/09/29 11:47:05;;;;;;;4.57;2.65;;;;;;;23.55;61.97;100283.19;10180525;29;20091;-78
2023/09/29 11:52:10;;;;;;;5.55;2.80;;;;;;;24.15;60.50;100277.59;10178988;29;20060;-78
2023/09/29 11:57:14;;;;;;;4.82;2.72;;;;;;;24.20;58.93;100277.81;10209594;29;20044;-78
2023/09/29 12:02:17;;;;;;;4.90;2.85;;;;;;;24.12;59.10;100280.78;10193122;29;20071;-79
2023/09/29 12:07:20;;;;;;;4.28;3.20;;;;;;;24.03;60.62;100274.69;10183884;29;20051;-78
2023/09/29 12:12:24;;;;;;;3.60;2.65;;;;;;;22.79;64.00;100292.59;10178770;29;20419;-77
2023/09/29 12:17:27;;;;;;;4.43;2.80;;;;;;;22.26;66.25;100297.84;10178408;29;20074;-78
2023/09/29 12:22:31;;;;;;;6.78;2.35;;;;;;;21.65;67.99;100312.16;10180075;29;20047;-77
2023/09/29 12:27:36;;;;;;;5.93;3.38;;;;;;;21.44;69.57;100316.63;10182573;29;20044;-78
2023/09/29 12:32:39;;;;;;;4.93;3.60;;;;;;;21.58;69.46;100328.50;10180813;29;20044;-76
2023/09/29 12:37:43;;;;;;;5.43;3.53;;;;;;;22.20;67.31;100331.50;10179029;29;20115;-79
2023/09/29 12:42:48;;;;;;;5.93;3.88;;;;;;;22.20;67.55;100328.75;10177919;29;20075;-78
2023/09/29 12:47:54;;;;;;;5.72;3.67;;;;;;;23.15;62.53;100325.16;10146447;29;20056;-79
2023/09/29 12:52:57;;;;;;;4.88;3.65;;;;;;;22.65;65.90;100327.28;10137465;29;20700;-77
2023/09/29 12:58:05;;;;;;;5.05;3.58;;;;;;;24.45;60.10;100322.69;10136048;29;20209;-78
2023/09/29 13:03:08;;;;;;;6.65;3.35;;;;;;;24.14;59.44;100319.84;10136584;29;20055;-78
2023/09/29 13:08:12;;;;;;;5.07;2.95;;;;;;;24.60;58.55;100318.81;10133863;29;20048;-78
2023/09/29 13:13:17;;;;;;;5.85;3.67;;;;;;;23.69;59.18;100325.16;10184002;29;20071;-77
2023/09/29 13:18:20;;;;;;;7.88;3.70;;;;;;;22.16;63.42;100344.72;10159769;28;20047;-78
2023/09/29 13:23:24;;;;;;;6.40;3.72;;;;;;;22.73;63.52;100343.53;10167253;29;20055;-80
2023/09/29 13:28:29;;;;;;;6.25;3.50;;;;;;;24.57;55.92;100349.47;10161413;28;20118;-78
2023/09/29 13:33:33;;;;;;;6.70;4.10;;;;;;;25.38;51.91;100335.91;10153065;28;20090;-78
2023/09/29 13:38:36;;;;;;;8.15;3.92;;;;;;;23.11;59.65;100345.78;10156850;28;21199;-78
2023/09/29 13:43:41;;;;;;;9.10;3.95;;;;;;;26.28;50.12;100341.03;10156985;28;20700;-79
2023/09/29 13:48:43;;;;;;;7.30;4.55;;;;;;;25.35;50.68;100325.38;10144393;29;20134;-79
2023/09/29 13:53:47;;;;;;;7.18;4.20;;;;;;;24.45;54.53;100352.91;10147912;29;20040;-79
2023/09/29 13:58:53;;;;;;;7.80;4.47;;;;;;;24.69;53.87;100350.50;10140106;29;20174;-78
2023/09/29 14:03:58;;;;;;;7.93;4.32;;;;;;;25.41;51.17;100346.47;10135739;29;20063;-79
2023/09/29 14:09:02;;;;;;;7.63;3.85;;;;;;;23.97;53.88;100347.72;10139584;29;20056;-79
2023/09/29 14:14:21;;;;;;;7.18;4.20;;;;;;;23.40;56.06;100361.00;10139707;29;20583;-78
2023/09/29 14:19:24;;;;;;;7.82;4.15;;;;;;;22.51;60.40;100355.66;10140617;29;20047;-79
2023/09/29 14:24:27;;;;;;;6.75;4.00;;;;;;;22.54;59.61;100345.16;10147355;28;20056;-79
2023/09/29 14:29:31;;;;;;;8.32;3.53;;;;;;;22.08;60.67;100364.03;10180917;28;20044;-78
2023/09/29 14:34:34;;;;;;;8.65;3.95;;;;;;;22.25;60.54;100378.25;10165828;28;20058;-78
2023/09/29 14:39:37;;;;;;;8.90;3.95;;;;;;;22.19;60.88;100377.16;10149819;28;20052;-78
2023/09/29 14:44:41;;;;;;;10.10;4.38;;;;;;;21.83;61.59;100369.09;10151713;29;20609;-79
2023/09/29 14:49:44;;;;;;;6.00;3.58;;;;;;;21.88;61.80;100370.19;10143215;28;20546;-79
2023/09/29 14:54:47;;;;;;;7.93;3.17;;;;;;;21.86;62.77;100383.25;10137690;29;20122;-79
2023/09/29 14:59:51;;;;;;;8.93;3.30;;;;;;;22.03;62.12;100383.78;10136803;29;20059;-79
2023/09/29 15:04:55;;;;;;;9.90;3.58;;;;;;;22.58;60.82;100388.56;10143078;29;20515;-78
2023/09/29 15:09:59;;;;;;;10.38;3.53;;;;;;;21.59;63.93;100392.22;10141262;29;20048;-79
2023/09/29 15:15:04;;;;;;;10.82;3.88;;;;;;;21.60;64.60;100394.75;10140528;29;20067;-79
2023/09/29 15:20:08;;;;;;;7.70;2.90;;;;;;;21.28;64.75;100384.34;10145458;29;20067;-80
2023/09/29 15:25:11;;;;;;;7.13;3.20;;;;;;;20.89;65.88;100400.06;10155311;29;20052;-79
2023/09/29 15:30:15;;;;;;;9.93;3.88;;;;;;;21.11;65.65;100402.88;10145032;29;20059;-78
2023/09/29 15:35:19;;;;;;;9.25;4.40;;;;;;;21.28;65.07;100389.81;10143137;29;20051;-78
2023/09/29 15:40:22;;;;;;;10.00;4.95;;;;;;;21.19;65.03;100403.59;10140524;29;20055;-78
2023/09/29 15:45:27;;;;;;;10.60;4.05;;;;;;;21.21;66.30;100415.19;10138186;29;20052;-79
2023/09/29 15:50:31;;;;;;;10.52;4.45;;;;;;;21.16;66.73;100423.09;10139250;29;20066;-78
2023/09/29 15:55:35;;;;;;;8.13;3.53;;;;;;;20.64;68.86;100435.03;10140171;29;20060;-78
2023/09/29 16:00:39;;;;;;;11.77;4.07;;;;;;;20.19;75.79;100444.22;10131631;29;20052;-79
2023/09/29 16:05:42;;;;;;;10.77;4.75;;;;;;;17.77;100.00;100484.75;10139988;29;21122;-77
2023/09/29 16:10:45;;;;;;;10.23;3.80;;;;;;;16.44;100.00;100499.00;10137944;29;20122;-77
2023/09/29 16:15:49;;;;;;;10.68;5.57;;;;;;;16.41;100.00;100500.16;10140319;29;20249;-78
2023/09/29 16:20:52;;;;;;;9.82;4.90;;;;;;;17.04;100.00;100507.97;10142676;28;20063;-77
2023/09/29 16:25:55;;;;;;;8.63;5.22;;;;;;;16.95;100.00;100524.34;10149093;28;20056;-78
2023/09/29 16:31:02;;;;;;;11.18;5.40;;;;;;;16.84;100.00;100535.50;10143564;28;20067;-77
2023/09/29 16:36:05;;;;;;;7.30;5.57;;;;;;;17.08;100.00;100543.75;10151246;28;20052;-77
2023/09/29 16:41:10;;;;;;;6.88;4.50;;;;;;;16.85;100.00;100557.03;10150806;28;20063;-77
2023/09/29 16:46:14;;;;;;;6.70;4.38;;;;;;;16.55;100.00;100558.38;10149476;28;20052;-77
2023/09/29 16:51:17;;;;;;;7.55;4.00;;;;;;;16.48;100.00;100582.59;10158081;28;20051;-78
2023/09/29 16:56:25;;;;;;;8.20;4.45;;;;;;;16.34;100.00;100610.25;10171377;28;20511;-78
2023/09/29 17:01:30;;;;;;;7.55;4.75;;;;;;;15.76;100.00;100630.47;10155006;29;20063;-77
2023/09/29 17:06:33;;;;;;;9.55;5.13;;;;;;;16.53;100.00;100634.44;10145199;29;21035;-78
2023/09/29 17:11:37;;;;;;;9.50;5.20;;;;;;;16.27;100.00;100649.84;10137747;29;20056;-78
2023/09/29 17:16:42;;;;;;;8.85;4.20;;;;;;;16.19;100.00;100658.69;10134263;29;21526;-77
2023/09/29 17:21:45;;;;;;;7.78;4.10;;;;;;;16.54;100.00;100689.56;10148582;29;20123;-77
2023/09/29 17:26:48;;;;;;;5.90;1.85;;;;;;;15.86;100.00;100714.41;10146037;29;20048;-78
2023/09/29 17:31:52;;;;;;;3.05;1.30;;;;;;;15.69;100.00;100716.06;10148814;28;20492;-77
2023/09/29 17:36:55;;;;;;;4.28;0.98;;;;;;;15.62;100.00;100729.31;10144925;29;20392;-77
2023/09/29 17:42:00;;;;;;;2.83;1.35;;;;;;;15.43;100.00;100746.47;10147536;29;20052;-78
2023/09/29 17:47:06;;;;;;;1.80;0.80;;;;;;;15.37;100.00;100751.66;10152843;28;20144;-78
2023/09/29 17:52:09;;;;;;;1.38;0.98;;;;;;;15.52;100.00;100768.25;10148633;28;20103;-77
2023/09/29 17:57:13;;;;;;;1.98;0.85;;;;;;;15.20;100.00;100780.28;10149177;28;20059;-76
2023/09/29 18:02:17;;;;;;;3.70;1.50;;;;;;;15.62;100.00;100794.31;10165072;28;20806;-78
2023/09/29 18:07:21;;;;;;;2.85;0.70;;;;;;;15.24;100.00;100806.88;10145455;29;20070;-78
2023/09/29 18:12:24;;;;;;;3.17;1.00;;;;;;;15.18;99.82;100821.00;10136691;29;20516;-78
2023/09/29 18:17:28;;;;;;;5.28;0.80;;;;;;;15.63;100.00;100822.22;10139692;28;20048;-78
2023/09/29 18:22:32;;;;;;;2.22;1.00;;;;;;;15.84;100.00;100839.13;10132124;29;20052;-78
2023/09/29 18:27:35;;;;;;;1.35;0.90;;;;;;;15.77;100.00;100842.56;10131834;29;20135;-77
2023/09/29 18:32:39;;;;;;;5.15;1.13;;;;;;;15.39;99.36;100857.94;10122125;29;20058;-78
2023/09/29 18:37:42;;;;;;;4.47;1.25;;;;;;;15.55;99.02;100865.44;10142022;29;20068;-77
2023/09/29 18:42:45;;;;;;;4.78;1.20;;;;;;;15.31;98.98;100876.72;10136399;29;20500;-78
2023/09/29 18:47:49;;;;;;;3.70;1.30;;;;;;;15.52;99.97;100890.94;10137113;29;20048;-78
2023/09/29 18:52:52;;;;;;;2.20;1.80;;;;;;;15.13;98.75;100888.22;10134900;29;20095;-78
2023/09/29 18:57:55;;;;;;;5.93;1.85;;;;;;;15.00;98.15;100903.88;10139194;29;21262;-78
2023/09/29 19:02:59;;;;;;;4.20;1.67;;;;;;;15.24;96.76;100911.59;10139273;29;20078;-78
2023/09/29 19:08:03;;;;;;;6.05;1.83;;;;;;;14.92;97.50;100915.41;10136695;29;20048;-78
2023/09/29 19:13:07;;;;;;;5.90;1.98;;;;;;;15.29;95.83;100932.81;10137436;29;20044;-78
2023/09/29 19:18:12;;;;;;;2.97;1.70;;;;;;;15.25;96.19;100943.09;10141728;29;20121;-77
2023/09/29 19:23:16;;;;;;;5.50;2.00;;;;;;;15.56;95.64;100962.78;10133033;29;20040;-78
2023/09/29 19:28:19;;;;;;;4.05;2.03;;;;;;;15.33;95.95;100964.00;10138972;29;20048;-78
2023/09/29 19:33:23;;;;;;;5.40;2.40;;;;;;;14.97;95.86;100979.91;10156967;29;20507;-78
2023/09/29 19:38:26;;;;;;;4.95;2.35;;;;;;;15.29;94.45;100973.41;10157754;28;20056;-78
2023/09/29 19:43:29;;;;;;;7.32;2.28;;;;;;;15.36;94.44;100980.00;10158855;28;20051;-78
2023/09/29 19:48:33;;;;;;;7.50;2.30;;;;;;;15.25;93.73;100995.34;10150814;29;20052;-78
2023/09/29 19:53:37;;;;;;;9.02;2.90;;;;;;;15.10;95.05;101004.84;10147280;29;21201;-78
2023/09/29 19:58:41;;;;;;;11.00;3.03;;;;;;;14.99;95.29;101004.97;10149756;28;20074;-78
2023/09/29 20:03:46;;;;;;;9.10;2.70;;;;;;;14.99;94.84;101013.09;10147261;29;20044;-79
2023/09/29 20:08:49;;;;;;;8.73;2.65;;;;;;;14.73;96.33;101023.56;10147273;29;20048;-80
2023/09/29 20:13:53;;;;;;;6.43;2.63;;;;;;;14.72;94.91;101030.78;10145450;29;20071;-78
2023/09/29 20:18:57;;;;;;;7.07;2.50;;;;;;;15.06;93.15;101027.78;10149710;28;20090;-78
2023/09/29 20:24:01;;;;;;;6.75;2.90;;;;;;;14.62;95.87;101051.53;10150349;28;20225;-77
2023/09/29 20:29:04;;;;;;;7.78;3.05;;;;;;;14.59;95.36;101065.31;10151931;28;20076;-78
2023/09/29 20:34:08;;;;;;;8.48;3.20;;;;;;;14.44;94.36;101064.78;10144361;29;20052;-78
2023/09/29 20:39:11;;;;;;;11.15;3.88;;;;;;;14.09;94.50;101063.22;10163345;28;20055;-79
2023/09/29 20:44:14;;;;;;;13.60;2.88;;;;;;;14.45;92.02;101077.31;10153906;28;20430;-78
2023/09/29 20:49:19;;;;;;;13.25;4.80;;;;;;;14.25;92.81;101095.22;10143457;29;20047;-78
2023/09/29 20:54:22;;;;;;;14.30;3.67;;;;;;;13.89;93.02;101099.19;10142600;28;20055;-78
2023/09/29 20:59:24;;;;;;;13.43;3.60;;;;;;;14.19;92.07;101114.66;10135535;29;20063;-78
2023/09/29 21:04:29;;;;;;;11.45;3.90;;;;;;;14.15;91.14;101121.28;10135848;29;20059;-78
2023/09/29 21:09:32;;;;;;;11.60;3.33;;;;;;;13.94;90.47;101130.22;10135539;29;20056;-78
2023/09/29 21:14:35;;;;;;;20.30;4.40;;;;;;;13.80;89.87;101137.78;10134643;29;20052;-78
2023/09/29 21:19:39;;;;;;;12.50;4.07;;;;;;;13.86;89.31;101148.06;10134271;29;20060;-79
2023/09/29 21:24:42;;;;;;;21.60;4.18;;;;;;;13.74;89.25;101151.75;10143937;29;21312;-78
2023/09/29 21:29:45;;;;;;;16.45;3.90;;;;;;;13.96;88.02;101176.03;10133275;29;20107;-77
2023/09/29 21:34:49;;;;;;;11.63;3.92;;;;;;;13.22;90.78;101173.88;10135094;29;20050;-78
2023/09/29 21:39:52;;;;;;;10.68;3.92;;;;;;;13.67;88.61;101173.88;10135347;29;20044;-77
2023/09/29 21:44:55;;;;;;;14.98;3.95;;;;;;;13.49;88.68;101178.94;10130425;29;20055;-77
2023/09/29 21:49:59;;;;;;;16.23;4.35;;;;;;;13.25;89.06;101184.44;10120662;29;20063;-78
2023/09/29 21:55:02;;;;;;;16.10;4.68;;;;;;;13.49;87.67;101192.44;10138737;29;20047;-78
2023/09/29 22:00:16;;;;;;;20.25;4.53;;;;;;;13.19;88.51;101193.03;10132638;29;20499;-77
2023/09/29 22:05:20;;;;;;;16.98;4.88;;;;;;;13.26;88.65;101191.53;10151249;29;20508;-78
2023/09/29 22:10:23;;;;;;;23.27;5.70;;;;;;;13.27;88.50;101184.28;10131581;29;20198;-77
2023/09/29 22:15:27;;;;;;;12.77;4.30;;;;;;;13.24;88.37;101185.41;10144658;29;20177;-78
2023/09/29 22:20:33;;;;;;;14.13;4.57;;;;;;;13.17;88.94;101196.81;10140906;29;20150;-78
2023/09/29 22:25:38;;;;;;;19.15;4.95;;;;;;;13.18;88.47;101195.81;10137881;29;21306;-79
2023/09/29 22:30:41;;;;;;;15.38;4.22;;;;;;;13.04;88.77;101205.88;10136867;29;20234;-78
2023/09/29 22:35:45;;;;;;;20.38;4.97;;;;;;;13.00;89.55;101211.59;10136519;29;20047;-78
2023/09/29 22:40:48;;;;;;;18.05;5.32;;;;;;;13.03;88.97;101228.44;10135626;29;20052;-77
2023/09/29 22:45:51;;;;;;;19.83;4.85;;;;;;;13.04;88.88;101222.06;10136215;29;21261;-78
2023/09/29 22:50:56;;;;;;;15.95;4.40;;;;;;;12.88;89.94;101220.66;10136170;29;20581;-77
2023/09/29 22:55:58;;;;;;;20.38;4.70;;;;;;;13.12;88.77;101226.84;10135995;29;20574;-77
2023/09/29 23:01:03;;;;;;;16.77;4.63;;;;;;;12.92;90.27;101217.63;10136291;29;20060;-77
2023/09/29 23:06:07;;;;;;;20.90;4.97;;;;;;;12.73;91.26;101223.59;10128525;29;20058;-77
2023/09/29 23:11:12;;;;;;;17.70;5.32;;;;;;;12.97;89.60;101226.22;10137602;29;20051;-78